Terminal Aerodrome Forecast
Issued by NWS Pueblo, CO

Home | Current Version | Previous Version | Text Only | Print | Product List | Glossary On
Versions: 1 2 3 4 5 6 7 8 9 10 11 12 13 14 15 16 17 18 19 20 21 22 23 24 25 26 27 28 29 30 31 32
000
FTUS45 KPUB 020530
TAFCOS
TAF
KCOS 020530Z 0206/0306 35015G25KT P6SM FEW010 OVC035
     FM021200 33011KT P6SM FEW060 SCT090
     FM021900 15009KT P6SM FEW060 SCT090=

USA.gov is the U.S. government's official web portal to all federal, state and local government web resources and services.